Time;durP1;ratioP1;P1;durP2;ratioP2;P2;SDS_P1;SDS_P2;PMS_P1;PMS_P2;Temp;Humidity;BMP_temperature;BMP_pressure;BME280_temperature;BME280_humidity;BME280_pressure;Samples;Min_cycle;Max_cycle;Signal;HPM_P1;HPM_P2
2023/08/09 00:00:34;;;;;;;3.77;2.60;;;14.00;99.90;;;;;;5059424;28;20263;-58
2023/08/09 00:03:00;;;;;;;3.80;2.70;;;14.00;99.90;;;;;;5062195;28;20178;-58
2023/08/09 00:05:26;;;;;;;4.23;3.20;;;14.00;99.90;;;;;;5064331;28;20186;-57
2023/08/09 00:07:52;;;;;;;4.67;3.07;;;14.00;99.90;;;;;;5061712;28;20509;-57
2023/08/09 00:10:18;;;;;;;3.60;2.50;;;14.00;99.90;;;;;;5060551;28;20192;-58
2023/08/09 00:12:44;;;;;;;4.87;3.13;;;14.00;99.90;;;;;;5061443;28;20167;-58
2023/08/09 00:15:09;;;;;;;3.90;2.80;;;14.00;99.90;;;;;;5062508;28;21046;-57
2023/08/09 00:17:35;;;;;;;3.60;3.17;;;14.00;99.90;;;;;;5062341;28;20709;-58
2023/08/09 00:20:01;;;;;;;10.47;3.10;;;13.90;99.90;;;;;;5062321;28;20269;-57
2023/08/09 00:22:26;;;;;;;3.93;2.93;;;13.90;99.90;;;;;;5062786;28;20186;-58
2023/08/09 00:24:52;;;;;;;5.93;3.23;;;13.80;99.90;;;;;;5062457;28;20574;-58
2023/08/09 00:27:18;;;;;;;3.40;2.97;;;13.80;99.90;;;;;;5059875;28;20185;-56
2023/08/09 00:29:44;;;;;;;3.47;2.83;;;13.80;99.90;;;;;;5063927;28;20182;-58
2023/08/09 00:32:09;;;;;;;3.47;2.80;;;13.80;99.90;;;;;;5062615;28;20272;-58
2023/08/09 00:34:35;;;;;;;3.67;3.00;;;13.70;99.90;;;;;;5069011;28;20222;-57
2023/08/09 00:37:01;;;;;;;3.70;3.17;;;13.70;99.90;;;;;;5066698;28;20181;-59
2023/08/09 00:39:27;;;;;;;3.67;2.70;;;13.70;99.90;;;;;;5066961;28;20198;-58
2023/08/09 00:41:53;;;;;;;6.20;3.00;;;13.60;99.90;;;;;;5063315;28;20182;-58
2023/08/09 00:44:18;;;;;;;3.00;2.70;;;13.70;99.90;;;;;;5061119;28;20303;-59
2023/08/09 00:46:44;;;;;;;5.33;2.23;;;13.70;99.90;;;;;;5061054;28;20478;-58
2023/08/09 00:49:10;;;;;;;3.00;2.70;;;13.70;99.90;;;;;;5059827;28;20204;-58
2023/08/09 00:51:36;;;;;;;4.30;2.60;;;13.70;99.90;;;;;;5057453;28;20167;-58
2023/08/09 00:54:01;;;;;;;4.50;2.90;;;13.70;99.90;;;;;;5054317;28;20190;-59
2023/08/09 00:56:27;;;;;;;2.80;2.50;;;13.70;99.90;;;;;;5063640;28;20817;-57
2023/08/09 00:58:53;;;;;;;3.70;2.63;;;13.70;99.90;;;;;;5063239;28;20170;-57
2023/08/09 01:01:19;;;;;;;4.83;2.33;;;13.70;99.90;;;;;;5064613;28;20182;-58
2023/08/09 01:03:44;;;;;;;4.13;2.80;;;13.70;99.90;;;;;;5062954;28;20765;-57
2023/08/09 01:06:30;;;;;;;3.80;2.57;;;13.70;99.90;;;;;;5065335;28;20571;-57
2023/08/09 01:09:08;;;;;;;3.03;2.30;;;13.70;99.90;;;;;;5057839;28;20282;-57
2023/08/09 01:11:48;;;;;;;3.83;2.40;;;13.70;99.90;;;;;;5061728;28;20933;-57
2023/08/09 01:14:16;;;;;;;3.90;2.63;;;13.70;99.90;;;;;;5055808;28;20475;-56
2023/08/09 01:16:43;;;;;;;3.37;2.00;;;13.80;99.90;;;;;;5060632;28;20436;-57
2023/08/09 01:19:19;;;;;;;4.23;3.10;;;13.80;99.90;;;;;;5064914;28;20462;-57
2023/08/09 01:21:46;;;;;;;3.77;2.63;;;13.80;99.90;;;;;;5063349;28;20431;-57
2023/08/09 01:24:12;;;;;;;6.40;2.70;;;13.80;99.90;;;;;;5061067;28;20529;-58
2023/08/09 01:26:39;;;;;;;2.40;2.20;;;13.80;99.90;;;;;;5062261;28;20870;-58
2023/08/09 01:29:05;;;;;;;4.70;2.80;;;13.70;99.90;;;;;;5063336;28;20464;-56
2023/08/09 01:31:31;;;;;;;4.63;2.80;;;13.70;99.90;;;;;;5059013;28;20441;-59
2023/08/09 01:33:56;;;;;;;4.07;2.80;;;13.70;99.90;;;;;;5063234;28;20191;-57
2023/08/09 01:36:27;;;;;;;4.50;3.10;;;13.70;99.90;;;;;;5060708;28;20220;-57
2023/08/09 01:39:01;;;;;;;4.13;2.83;;;13.70;99.90;;;;;;5064820;28;20269;-56
2023/08/09 01:41:28;;;;;;;4.83;2.70;;;13.70;99.90;;;;;;5061417;28;20781;-56
2023/08/09 01:43:55;;;;;;;3.47;2.57;;;13.70;99.90;;;;;;5057386;28;20456;-56
2023/08/09 01:46:22;;;;;;;3.37;2.40;;;13.70;99.90;;;;;;5055519;28;20432;-57
2023/08/09 01:48:48;;;;;;;4.00;2.93;;;13.70;99.90;;;;;;5053435;28;20481;-58
2023/08/09 01:51:14;;;;;;;2.90;2.60;;;13.70;99.90;;;;;;5057037;28;20520;-57
2023/08/09 01:53:39;;;;;;;5.40;3.03;;;13.70;99.90;;;;;;5059365;28;20539;-58
2023/08/09 01:56:05;;;;;;;3.83;2.50;;;13.70;99.90;;;;;;5055759;28;20682;-56
2023/08/09 01:58:31;;;;;;;2.40;2.17;;;13.70;99.90;;;;;;5055093;28;20269;-56
2023/08/09 02:00:57;;;;;;;2.37;2.17;;;13.70;99.90;;;;;;5058897;28;20198;-56
2023/08/09 02:03:25;;;;;;;2.60;2.40;;;13.70;99.90;;;;;;5052685;28;21020;-57
2023/08/09 02:05:51;;;;;;;4.40;2.47;;;13.80;99.90;;;;;;5059080;28;20174;-57
2023/08/09 02:08:17;;;;;;;2.30;2.10;;;13.80;99.90;;;;;;5058759;28;20449;-56
2023/08/09 02:10:42;;;;;;;7.63;2.73;;;13.80;99.90;;;;;;5058238;28;20463;-58
2023/08/09 02:13:08;;;;;;;6.20;2.63;;;13.90;99.90;;;;;;5056437;28;20178;-57
2023/08/09 02:15:34;;;;;;;2.77;2.33;;;13.90;99.90;;;;;;5055377;28;20194;-57
2023/08/09 02:18:00;;;;;;;4.30;3.23;;;13.90;99.90;;;;;;5055130;28;20185;-58
2023/08/09 02:20:25;;;;;;;5.10;2.50;;;13.90;99.90;;;;;;5054634;28;20182;-58
2023/08/09 02:22:52;;;;;;;3.50;2.40;;;13.80;99.90;;;;;;5055197;28;20189;-56
2023/08/09 02:25:18;;;;;;;4.57;2.23;;;13.80;99.90;;;;;;5059323;28;20448;-58
2023/08/09 02:27:43;;;;;;;5.77;2.70;;;13.70;99.90;;;;;;5056262;28;20206;-57
2023/08/09 02:30:09;;;;;;;4.63;2.90;;;13.70;99.90;;;;;;5055647;28;20178;-57
2023/08/09 02:32:36;;;;;;;4.80;2.80;;;13.70;99.90;;;;;;5057659;28;20197;-58
2023/08/09 02:35:03;;;;;;;3.17;2.87;;;13.70;99.90;;;;;;5059479;28;20667;-58
2023/08/09 02:37:29;;;;;;;3.37;3.03;;;13.60;99.90;;;;;;5059191;28;20523;-57
2023/08/09 02:39:55;;;;;;;3.37;2.80;;;13.60;99.90;;;;;;5056066;28;20438;-56
2023/08/09 02:42:20;;;;;;;5.00;2.60;;;13.50;99.90;;;;;;5057060;28;20182;-58
2023/08/09 02:44:46;;;;;;;2.83;2.53;;;13.50;99.90;;;;;;5057708;28;20252;-58
2023/08/09 02:47:12;;;;;;;5.17;2.90;;;13.40;99.90;;;;;;5057955;28;20178;-56
2023/08/09 02:49:37;;;;;;;10.93;2.90;;;13.40;99.90;;;;;;5057410;28;20261;-58
2023/08/09 02:52:04;;;;;;;4.03;2.80;;;13.40;99.90;;;;;;5057264;28;20240;-58
2023/08/09 02:54:29;;;;;;;3.70;2.90;;;13.40;99.90;;;;;;5054502;28;20210;-58
2023/08/09 02:56:55;;;;;;;13.03;3.10;;;13.40;99.90;;;;;;5059797;28;20441;-58
2023/08/09 02:59:21;;;;;;;5.40;2.73;;;13.40;99.90;;;;;;5060228;28;20261;-58
2023/08/09 03:01:46;;;;;;;3.07;2.63;;;13.40;99.90;;;;;;5065507;28;20202;-58
2023/08/09 03:04:12;;;;;;;3.50;3.03;;;13.40;99.90;;;;;;5063032;28;20209;-58
2023/08/09 03:06:37;;;;;;;3.50;2.90;;;13.40;99.90;;;;;;5061253;28;20644;-58
2023/08/09 03:09:03;;;;;;;4.50;2.60;;;13.40;99.90;;;;;;5063737;28;20272;-57
2023/08/09 03:11:29;;;;;;;3.40;2.80;;;13.40;99.90;;;;;;5060416;28;20742;-58
2023/08/09 03:13:55;;;;;;;4.30;2.73;;;13.40;99.90;;;;;;5056068;28;20316;-58
2023/08/09 03:16:21;;;;;;;3.00;2.60;;;13.40;99.90;;;;;;5062434;28;20696;-58
2023/08/09 03:18:47;;;;;;;4.27;2.93;;;13.40;99.90;;;;;;5057453;28;20210;-58
2023/08/09 03:21:13;;;;;;;4.47;3.30;;;13.40;99.90;;;;;;5065300;28;20461;-58
2023/08/09 03:23:38;;;;;;;6.33;3.57;;;13.30;99.90;;;;;;5062418;28;20683;-59
2023/08/09 03:26:05;;;;;;;3.03;2.60;;;13.30;99.90;;;;;;5058915;28;20439;-58
2023/08/09 03:28:32;;;;;;;6.20;3.17;;;13.30;99.90;;;;;;5054671;28;20199;-55
2023/08/09 03:30:58;;;;;;;2.63;2.43;;;13.30;99.90;;;;;;5055870;28;20957;-58
2023/08/09 03:33:24;;;;;;;3.93;3.17;;;13.30;99.90;;;;;;5058766;28;20433;-58
2023/08/09 03:35:50;;;;;;;6.63;3.00;;;13.30;99.90;;;;;;5057849;28;20202;-54
2023/08/09 03:38:16;;;;;;;3.40;2.40;;;13.20;99.90;;;;;;5059312;28;20467;-55
2023/08/09 03:40:42;;;;;;;5.80;3.33;;;13.20;99.90;;;;;;5059494;28;20512;-56
2023/08/09 03:43:07;;;;;;;4.27;3.10;;;13.20;99.90;;;;;;5058692;28;20434;-56
2023/08/09 03:45:33;;;;;;;3.17;2.70;;;13.20;99.90;;;;;;5054168;28;20237;-56
2023/08/09 03:47:59;;;;;;;4.77;2.43;;;13.20;99.90;;;;;;5051367;28;20202;-53
2023/08/09 03:50:26;;;;;;;4.13;3.23;;;13.30;99.90;;;;;;5052230;28;20278;-54
2023/08/09 03:52:52;;;;;;;5.10;2.67;;;13.30;99.90;;;;;;5048769;28;20175;-58
2023/08/09 03:55:18;;;;;;;15.33;3.57;;;13.30;99.90;;;;;;5050760;28;20467;-58
2023/08/09 03:57:44;;;;;;;5.87;3.37;;;13.30;99.90;;;;;;5050329;28;20433;-59
2023/08/09 04:00:17;;;;;;;5.33;3.20;;;13.30;99.90;;;;;;5048662;28;20186;-58
2023/08/09 04:02:47;;;;;;;3.27;2.90;;;13.30;99.90;;;;;;5049236;28;20182;-59
2023/08/09 04:05:16;;;;;;;4.57;3.20;;;13.30;99.90;;;;;;5049070;28;20457;-59
2023/08/09 04:07:42;;;;;;;4.00;3.23;;;13.30;99.90;;;;;;5052024;28;20449;-64
2023/08/09 04:10:08;;;;;;;5.43;2.80;;;13.30;99.90;;;;;;5044578;28;20464;-60
2023/08/09 04:12:35;;;;;;;7.57;3.87;;;13.30;99.90;;;;;;5056724;28;20175;-59
2023/08/09 04:15:03;;;;;;;7.10;3.23;;;13.30;99.90;;;;;;5060827;28;20452;-60
2023/08/09 04:17:31;;;;;;;3.73;2.83;;;13.40;99.90;;;;;;5052760;28;20921;-58
2023/08/09 04:19:56;;;;;;;5.70;3.00;;;13.40;99.90;;;;;;5061436;28;20930;-58
2023/08/09 04:22:22;;;;;;;5.10;2.50;;;13.40;99.90;;;;;;5063130;28;20432;-58
2023/08/09 04:24:48;;;;;;;6.80;3.13;;;13.40;99.90;;;;;;5058419;28;20582;-59
2023/08/09 04:27:13;;;;;;;4.20;3.43;;;13.50;99.90;;;;;;5062871;28;20174;-59
2023/08/09 04:29:39;;;;;;;3.40;2.83;;;13.50;99.90;;;;;;5055165;28;20201;-58
2023/08/09 04:32:04;;;;;;;3.93;2.70;;;13.50;99.90;;;;;;5055306;28;20191;-59
2023/08/09 04:34:30;;;;;;;5.37;2.70;;;13.50;99.90;;;;;;5056468;28;20194;-58
2023/08/09 04:36:55;;;;;;;4.27;3.27;;;13.50;99.90;;;;;;5051192;28;20312;-54
2023/08/09 04:39:23;;;;;;;3.97;3.30;;;13.60;99.90;;;;;;5060143;28;20598;-55
2023/08/09 04:41:49;;;;;;;4.70;3.20;;;13.60;99.90;;;;;;5064272;28;20265;-54
2023/08/09 04:44:15;;;;;;;6.30;3.50;;;13.60;99.90;;;;;;5063715;28;20517;-54
2023/08/09 04:46:41;;;;;;;5.60;3.90;;;13.60;99.90;;;;;;5061167;28;20185;-54
2023/08/09 04:49:06;;;;;;;5.00;2.80;;;13.60;99.90;;;;;;5058605;28;20536;-54
2023/08/09 04:51:32;;;;;;;4.30;2.70;;;13.60;99.90;;;;;;5060248;28;20198;-54
2023/08/09 04:53:58;;;;;;;7.53;2.80;;;13.60;99.90;;;;;;5059894;28;20816;-55
2023/08/09 04:56:24;;;;;;;3.67;2.97;;;13.60;99.90;;;;;;5061744;28;20182;-55
2023/08/09 04:58:50;;;;;;;4.93;3.40;;;13.60;99.90;;;;;;5064318;28;20490;-55
2023/08/09 05:01:15;;;;;;;3.93;3.17;;;13.50;99.90;;;;;;5066291;28;20192;-55
2023/08/09 05:03:41;;;;;;;4.47;3.20;;;13.50;99.90;;;;;;5068935;28;20712;-55
2023/08/09 05:06:07;;;;;;;6.27;3.17;;;13.50;99.90;;;;;;5064586;28;20240;-55
2023/08/09 05:08:32;;;;;;;3.17;2.63;;;13.50;99.90;;;;;;5069238;28;20206;-54
2023/08/09 05:10:58;;;;;;;5.63;3.10;;;13.40;99.90;;;;;;5068098;28;20235;-54
2023/08/09 05:13:25;;;;;;;4.03;3.20;;;13.50;99.90;;;;;;5061657;28;20754;-55
2023/08/09 05:15:51;;;;;;;6.17;4.03;;;13.50;99.90;;;;;;5060416;28;20174;-54
2023/08/09 05:18:17;;;;;;;4.70;3.60;;;13.50;99.90;;;;;;5061240;28;20424;-55
2023/08/09 05:20:42;;;;;;;8.23;3.07;;;13.50;99.90;;;;;;5062724;28;20224;-54
2023/08/09 05:23:08;;;;;;;7.10;3.77;;;13.50;99.90;;;;;;5064205;28;20663;-55
2023/08/09 05:25:34;;;;;;;5.33;2.97;;;13.50;99.90;;;;;;5061881;28;20671;-54
2023/08/09 05:28:00;;;;;;;6.13;2.80;;;13.50;99.90;;;;;;5063235;28;20198;-55
2023/08/09 05:30:26;;;;;;;3.63;3.10;;;13.50;99.90;;;;;;5061620;28;20456;-55
2023/08/09 05:32:51;;;;;;;3.50;2.90;;;13.50;99.90;;;;;;5064037;28;20183;-55
2023/08/09 05:35:17;;;;;;;4.87;4.07;;;13.50;99.90;;;;;;5064392;28;20197;-55
2023/08/09 05:37:42;;;;;;;6.83;3.13;;;13.50;99.90;;;;;;5058867;28;20579;-55
2023/08/09 05:40:09;;;;;;;4.87;2.90;;;13.50;99.90;;;;;;5062557;28;20799;-55
2023/08/09 05:42:36;;;;;;;8.53;2.90;;;13.60;99.90;;;;;;5062037;28;20175;-55
2023/08/09 05:45:02;;;;;;;4.10;2.70;;;13.60;99.90;;;;;;5064329;28;21030;-55
2023/08/09 05:47:28;;;;;;;3.07;2.77;;;13.60;99.90;;;;;;5064157;28;20479;-54
2023/08/09 05:49:54;;;;;;;6.30;3.33;;;13.70;99.90;;;;;;5057194;28;20444;-55
2023/08/09 05:52:19;;;;;;;3.50;2.80;;;13.70;99.90;;;;;;5058508;28;20429;-55
2023/08/09 05:54:46;;;;;;;5.00;3.00;;;13.70;99.90;;;;;;5059839;28;20721;-55
2023/08/09 05:57:12;;;;;;;4.50;2.70;;;13.70;99.90;;;;;;5061403;28;20171;-55
2023/08/09 05:59:39;;;;;;;5.10;2.97;;;13.80;99.90;;;;;;5062961;28;20430;-54
2023/08/09 06:02:06;;;;;;;3.97;2.87;;;13.80;99.90;;;;;;5066680;28;20443;-55
2023/08/09 06:04:32;;;;;;;4.40;2.70;;;13.80;99.90;;;;;;5057997;28;20451;-55
2023/08/09 06:06:58;;;;;;;6.03;2.87;;;13.80;99.90;;;;;;5057239;28;20437;-54
2023/08/09 06:09:23;;;;;;;10.33;3.30;;;13.90;99.90;;;;;;5056134;28;20467;-54
2023/08/09 06:11:49;;;;;;;5.93;3.43;;;14.00;99.90;;;;;;5063482;28;20175;-55
2023/08/09 06:14:15;;;;;;;8.17;3.37;;;14.00;99.90;;;;;;5057998;28;20697;-55
2023/08/09 06:16:43;;;;;;;5.43;3.57;;;14.10;99.90;;;;;;5060971;28;20257;-56
2023/08/09 06:19:09;;;;;;;5.60;3.10;;;14.10;99.90;;;;;;5063015;28;20234;-55
2023/08/09 06:21:34;;;;;;;15.00;3.93;;;14.20;99.90;;;;;;5062590;28;20433;-54
2023/08/09 06:24:00;;;;;;;8.97;2.97;;;14.20;99.90;;;;;;5060025;28;20228;-55
2023/08/09 06:26:26;;;;;;;4.73;2.60;;;14.20;99.90;;;;;;5059154;28;20178;-55
2023/08/09 06:28:51;;;;;;;3.80;2.40;;;14.30;99.90;;;;;;5066743;28;20294;-54
2023/08/09 06:31:17;;;;;;;4.40;2.80;;;14.30;99.90;;;;;;5062781;28;20829;-54
2023/08/09 06:33:43;;;;;;;3.37;2.80;;;14.30;99.90;;;;;;5063998;28;20198;-55
2023/08/09 06:36:12;;;;;;;9.53;3.37;;;14.40;99.90;;;;;;5060468;28;20660;-54
2023/08/09 06:38:37;;;;;;;8.43;3.63;;;14.40;99.90;;;;;;5057690;28;20171;-54
2023/08/09 06:41:03;;;;;;;3.50;2.60;;;14.50;99.90;;;;;;5062170;28;20506;-55
2023/08/09 06:43:29;;;;;;;5.40;2.67;;;14.50;99.90;;;;;;5063150;28;20651;-55
2023/08/09 06:45:58;;;;;;;5.43;2.93;;;14.50;99.90;;;;;;5061718;28;20179;-55
2023/08/09 06:48:23;;;;;;;5.70;2.90;;;14.50;99.90;;;;;;5062423;28;20464;-54
2023/08/09 06:50:49;;;;;;;6.03;2.40;;;14.50;99.90;;;;;;5062216;28;20463;-54
2023/08/09 06:53:15;;;;;;;2.47;2.27;;;14.50;99.90;;;;;;5065314;28;20205;-55
2023/08/09 06:55:40;;;;;;;3.60;2.53;;;14.60;99.90;;;;;;5061095;28;20189;-54
2023/08/09 06:58:06;;;;;;;6.70;2.30;;;14.60;99.90;;;;;;5062455;28;20185;-54
2023/08/09 07:00:31;;;;;;;4.00;2.90;;;14.70;99.90;;;;;;5062272;28;20702;-53
2023/08/09 07:02:57;;;;;;;4.40;2.57;;;14.70;99.90;;;;;;5062531;28;20797;-55
2023/08/09 07:05:24;;;;;;;7.57;3.30;;;14.70;99.90;;;;;;5056550;28;20729;-53
2023/08/09 07:07:54;;;;;;;8.03;2.67;;;14.80;99.90;;;;;;5063519;28;20194;-55
2023/08/09 07:10:20;;;;;;;5.60;2.43;;;14.80;99.90;;;;;;5065945;28;20420;-55
2023/08/09 07:12:46;;;;;;;11.03;2.47;;;14.80;99.90;;;;;;5066159;28;20862;-53
2023/08/09 07:15:12;;;;;;;3.30;2.80;;;14.90;99.90;;;;;;5063777;28;20448;-53
2023/08/09 07:17:38;;;;;;;8.87;2.80;;;14.90;99.90;;;;;;5059596;28;20999;-54
2023/08/09 07:20:11;;;;;;;4.83;2.70;;;15.00;99.90;;;;;;5067395;28;20204;-55
2023/08/09 07:22:37;;;;;;;4.30;2.30;;;15.10;99.90;;;;;;5055085;28;20430;-55
2023/08/09 07:25:03;;;;;;;4.00;2.40;;;15.10;99.90;;;;;;5059274;28;20444;-53
2023/08/09 07:27:29;;;;;;;6.90;2.80;;;15.20;99.90;;;;;;5063224;28;20474;-54
2023/08/09 07:29:54;;;;;;;6.83;2.70;;;15.30;99.90;;;;;;5062076;28;20225;-54
2023/08/09 07:32:20;;;;;;;2.53;2.33;;;15.40;99.90;;;;;;5056016;28;20272;-55
2023/08/09 07:34:46;;;;;;;6.83;2.40;;;15.50;99.90;;;;;;5056766;28;20214;-54
2023/08/09 07:37:11;;;;;;;3.27;2.37;;;15.50;99.90;;;;;;5063147;28;20174;-53
2023/08/09 07:39:37;;;;;;;4.50;2.60;;;15.50;99.90;;;;;;5062323;28;20655;-55
2023/08/09 07:42:03;;;;;;;2.90;2.10;;;15.50;99.90;;;;;;5064161;28;20214;-54
2023/08/09 07:44:28;;;;;;;3.90;3.03;;;15.50;99.90;;;;;;5056851;28;20199;-54
2023/08/09 07:46:54;;;;;;;7.70;2.93;;;15.50;99.90;;;;;;5061035;28;20179;-54
2023/08/09 07:49:20;;;;;;;2.33;2.13;;;15.60;99.90;;;;;;5059196;28;20309;-54
2023/08/09 07:51:45;;;;;;;4.17;2.30;;;15.70;99.90;;;;;;5059366;28;20227;-54
2023/08/09 07:54:12;;;;;;;3.33;2.50;;;15.70;99.90;;;;;;5061666;28;20205;-54
2023/08/09 07:56:38;;;;;;;5.20;2.97;;;15.80;99.90;;;;;;5059085;28;20183;-54
2023/08/09 07:59:03;;;;;;;3.20;2.37;;;15.80;99.90;;;;;;5063956;28;20911;-55
2023/08/09 08:01:29;;;;;;;2.30;2.10;;;15.90;99.60;;;;;;5061432;28;20725;-55
2023/08/09 08:03:54;;;;;;;3.40;2.47;;;15.90;99.80;;;;;;5067160;28;20209;-54
2023/08/09 08:06:20;;;;;;;4.50;2.30;;;15.90;98.30;;;;;;5063928;28;20186;-54
2023/08/09 08:08:46;;;;;;;2.97;2.43;;;15.90;97.50;;;;;;5061818;28;20198;-55
2023/08/09 08:11:11;;;;;;;5.13;2.97;;;15.90;98.30;;;;;;5065210;28;20187;-53
2023/08/09 08:13:37;;;;;;;4.10;2.40;;;16.00;98.50;;;;;;5061503;28;20655;-55
2023/08/09 08:16:04;;;;;;;2.43;2.13;;;16.00;98.60;;;;;;5063668;28;20182;-52
2023/08/09 08:18:30;;;;;;;2.30;2.10;;;16.10;97.50;;;;;;5067788;28;20458;-55
2023/08/09 08:20:57;;;;;;;5.13;2.60;;;16.10;96.80;;;;;;5058522;28;20544;-55
2023/08/09 08:23:23;;;;;;;4.93;2.33;;;16.20;96.30;;;;;;5056720;28;20837;-54
2023/08/09 08:25:49;;;;;;;2.33;1.97;;;16.20;96.10;;;;;;5061576;28;20432;-54
2023/08/09 08:28:15;;;;;;;3.50;2.80;;;16.30;95.00;;;;;;5057405;28;20561;-55
2023/08/09 08:30:41;;;;;;;6.63;2.80;;;16.30;94.40;;;;;;5056275;28;20437;-55
2023/08/09 08:33:08;;;;;;;2.87;2.40;;;16.40;93.60;;;;;;5064457;28;20892;-55
2023/08/09 08:35:36;;;;;;;3.60;2.13;;;16.40;93.80;;;;;;5058999;28;20198;-55
2023/08/09 08:38:02;;;;;;;2.93;2.23;;;16.40;93.40;;;;;;5057804;28;20444;-53
2023/08/09 08:40:31;;;;;;;5.10;2.27;;;16.50;93.00;;;;;;5060830;28;21473;-55
2023/08/09 08:42:59;;;;;;;5.90;2.33;;;16.60;92.40;;;;;;5061605;28;20425;-55
2023/08/09 08:45:24;;;;;;;3.90;1.83;;;16.60;92.70;;;;;;5061746;28;20464;-53
2023/08/09 08:47:50;;;;;;;2.60;2.23;;;16.70;92.60;;;;;;5061870;28;20465;-54
2023/08/09 08:50:17;;;;;;;6.90;2.60;;;16.80;91.80;;;;;;5062949;28;20187;-55
2023/08/09 08:52:48;;;;;;;2.90;2.40;;;16.90;89.50;;;;;;5062951;28;20202;-53
2023/08/09 08:55:14;;;;;;;6.77;3.10;;;17.00;90.20;;;;;;5057208;28;20459;-55
2023/08/09 08:57:42;;;;;;;3.10;2.23;;;17.10;84.20;;;;;;5060577;28;20463;-55
2023/08/09 09:00:16;;;;;;;6.63;2.70;;;17.20;81.60;;;;;;5064817;28;20523;-54
2023/08/09 09:02:45;;;;;;;4.97;2.20;;;17.30;76.80;;;;;;5062047;28;20931;-55
2023/08/09 09:05:16;;;;;;;4.90;2.00;;;17.40;73.20;;;;;;5058571;28;20528;-55
2023/08/09 09:07:45;;;;;;;4.60;2.10;;;17.40;72.30;;;;;;5066663;28;21086;-54
2023/08/09 09:10:12;;;;;;;2.70;2.07;;;17.50;71.40;;;;;;5064376;28;20433;-55
2023/08/09 09:12:41;;;;;;;10.23;2.07;;;17.50;69.70;;;;;;5061726;28;20429;-55
2023/08/09 09:15:08;;;;;;;4.10;2.17;;;17.60;69.30;;;;;;5059982;28;20548;-54
2023/08/09 09:17:42;;;;;;;3.10;2.20;;;17.60;71.20;;;;;;5062293;28;20429;-55
2023/08/09 09:20:33;;;;;;;2.07;1.87;;;17.60;70.20;;;;;;5063550;28;20616;-53
2023/08/09 09:22:59;;;;;;;4.40;2.10;;;17.70;70.20;;;;;;5066025;28;20436;-55
2023/08/09 09:25:25;;;;;;;3.87;2.00;;;17.70;70.20;;;;;;5068543;28;20449;-55
2023/08/09 09:27:55;;;;;;;3.27;1.80;;;17.70;69.00;;;;;;5065598;28;20255;-55
2023/08/09 09:30:24;;;;;;;8.73;2.10;;;17.70;69.00;;;;;;5061502;28;20269;-53
2023/08/09 09:32:52;;;;;;;4.33;2.00;;;17.80;67.10;;;;;;5067894;28;20425;-55
2023/08/09 09:35:22;;;;;;;6.17;2.37;;;17.80;67.10;;;;;;5063206;28;20449;-53
2023/08/09 09:37:51;;;;;;;4.97;2.27;;;17.90;67.50;;;;;;5061902;28;21245;-54
2023/08/09 09:40:27;;;;;;;2.33;1.53;;;17.90;65.90;;;;;;5065262;28;20424;-55
2023/08/09 09:42:54;;;;;;;4.57;2.27;;;18.00;65.60;;;;;;5067266;28;21024;-55
2023/08/09 09:45:25;;;;;;;3.47;2.10;;;18.00;66.30;;;;;;5065531;28;20464;-55
2023/08/09 09:47:52;;;;;;;2.10;1.90;;;18.10;66.10;;;;;;5061531;28;20467;-55
2023/08/09 09:50:21;;;;;;;2.10;1.93;;;18.10;65.50;;;;;;5063276;28;20437;-55
2023/08/09 09:52:48;;;;;;;4.93;2.70;;;18.10;65.30;;;;;;5065848;28;20873;-54
2023/08/09 09:55:16;;;;;;;4.43;2.10;;;18.20;66.10;;;;;;5060613;28;20453;-55
2023/08/09 09:57:42;;;;;;;2.93;2.33;;;18.20;66.30;;;;;;5065769;28;20440;-55
2023/08/09 10:00:14;;;;;;;4.73;2.23;;;18.30;65.80;;;;;;5066076;28;20436;-55
2023/08/09 10:02:51;;;;;;;5.43;2.07;;;18.30;65.70;;;;;;5058620;28;20308;-55
2023/08/09 10:05:19;;;;;;;1.80;1.70;;;18.40;65.40;;;;;;5061224;28;20455;-55
2023/08/09 10:07:46;;;;;;;9.20;2.20;;;18.50;67.60;;;;;;5064507;28;20431;-55
2023/08/09 10:10:13;;;;;;;3.53;2.30;;;18.60;65.50;;;;;;5062481;28;20497;-55
2023/08/09 10:12:43;;;;;;;2.60;2.00;;;18.70;63.70;;;;;;5061771;28;20440;-55
2023/08/09 10:15:12;;;;;;;4.97;2.47;;;18.70;64.50;;;;;;5055526;28;20450;-55
2023/08/09 10:17:40;;;;;;;7.20;2.40;;;18.70;63.30;;;;;;5059440;28;21193;-55
2023/08/09 10:20:08;;;;;;;4.90;1.93;;;18.70;62.60;;;;;;5059506;28;20440;-54
2023/08/09 10:22:34;;;;;;;2.53;2.00;;;18.80;62.30;;;;;;5060925;28;20421;-55
2023/08/09 10:25:00;;;;;;;10.03;2.30;;;18.90;63.30;;;;;;5060052;28;20456;-55
2023/08/09 10:28:00;;;;;;;9.37;3.20;;;19.00;63.20;;;;;;5059865;28;20236;-55
2023/08/09 10:30:28;;;;;;;5.00;1.90;;;19.00;63.90;;;;;;5068763;28;20957;-55
2023/08/09 10:32:55;;;;;;;4.20;2.40;;;19.10;63.90;;;;;;5061398;28;20436;-55
2023/08/09 10:35:45;;;;;;;3.60;2.10;;;19.20;63.80;;;;;;5062459;28;20602;-55
2023/08/09 10:38:32;;;;;;;3.47;2.47;;;19.10;62.10;;;;;;5058023;28;21129;-54
2023/08/09 10:40:59;;;;;;;4.47;2.30;;;19.10;62.70;;;;;;5055834;28;20432;-55
2023/08/09 10:43:29;;;;;;;4.83;2.33;;;19.00;63.80;;;;;;5063819;28;20875;-54
2023/08/09 10:45:56;;;;;;;5.60;2.40;;;18.90;62.70;;;;;;5065150;28;20432;-56
2023/08/09 10:48:27;;;;;;;3.00;1.70;;;18.90;63.10;;;;;;5055113;28;20510;-56
2023/08/09 10:51:08;;;;;;;3.60;2.37;;;18.80;61.90;;;;;;5060975;28;20432;-57
2023/08/09 10:54:08;;;;;;;3.90;2.20;;;18.70;62.80;;;;;;5060804;28;21086;-56
2023/08/09 10:56:41;;;;;;;2.93;2.10;;;18.60;62.10;;;;;;5060654;28;20938;-58
2023/08/09 10:59:14;;;;;;;4.33;2.13;;;18.60;62.80;;;;;;5059578;28;20489;-59
2023/08/09 11:01:41;;;;;;;2.97;2.00;;;18.70;62.60;;;;;;5060408;28;20984;-58
2023/08/09 11:04:09;;;;;;;5.07;2.20;;;18.70;61.90;;;;;;5058162;28;20457;-58
2023/08/09 11:06:39;;;;;;;6.50;2.60;;;18.80;62.00;;;;;;5060645;28;20444;-61
2023/08/09 11:09:07;;;;;;;3.10;2.00;;;19.00;61.90;;;;;;5061354;28;20487;-59
2023/08/09 11:11:34;;;;;;;4.40;2.00;;;19.10;60.30;;;;;;5056617;28;20444;-59
2023/08/09 11:14:00;;;;;;;4.90;3.13;;;19.30;60.10;;;;;;5062144;28;20858;-58
2023/08/09 11:16:27;;;;;;;2.90;1.77;;;19.40;59.70;;;;;;5062528;28;20492;-58
2023/08/09 11:19:19;;;;;;;2.90;1.90;;;19.60;60.00;;;;;;5059108;28;20436;-58
2023/08/09 11:21:54;;;;;;;2.50;2.10;;;19.70;59.20;;;;;;5055731;28;20523;-60
2023/08/09 11:24:21;;;;;;;3.77;2.40;;;19.80;59.30;;;;;;5059074;28;20611;-58
2023/08/09 11:26:51;;;;;;;3.80;2.10;;;19.80;58.50;;;;;;5060027;28;21201;-56
2023/08/09 11:29:19;;;;;;;3.03;2.40;;;19.80;58.70;;;;;;5057969;28;20448;-56
2023/08/09 11:31:47;;;;;;;3.63;2.27;;;20.00;58.70;;;;;;5059541;28;20463;-55
2023/08/09 11:34:15;;;;;;;4.27;2.23;;;20.20;58.60;;;;;;5057840;28;20870;-58
2023/08/09 11:36:42;;;;;;;2.47;2.20;;;20.40;59.20;;;;;;5061631;28;20479;-58
2023/08/09 11:39:09;;;;;;;4.20;1.87;;;20.60;57.40;;;;;;5061463;28;20494;-57
2023/08/09 11:41:54;;;;;;;3.10;2.37;;;20.70;57.50;;;;;;5065923;28;20433;-59
2023/08/09 11:44:38;;;;;;;5.00;2.20;;;20.80;57.80;;;;;;5064599;28;20467;-58
2023/08/09 11:47:04;;;;;;;3.03;1.83;;;20.90;57.00;;;;;;5061413;28;20443;-58
2023/08/09 11:49:33;;;;;;;2.93;2.20;;;20.90;56.90;;;;;;5059021;28;20456;-58
2023/08/09 11:52:00;;;;;;;4.30;2.30;;;20.90;56.00;;;;;;5064874;28;20429;-58
2023/08/09 11:54:26;;;;;;;4.10;2.70;;;20.80;55.60;;;;;;5055695;28;20460;-57
2023/08/09 11:56:52;;;;;;;3.53;1.90;;;20.80;56.50;;;;;;5062847;28;20863;-58
2023/08/09 11:59:20;;;;;;;5.07;3.00;;;20.80;56.40;;;;;;5060273;28;20432;-57
2023/08/09 12:01:52;;;;;;;3.00;2.10;;;20.90;56.60;;;;;;5061447;28;20527;-55
2023/08/09 12:04:22;;;;;;;5.53;2.37;;;21.00;56.00;;;;;;5060452;28;20458;-57
2023/08/09 12:06:56;;;;;;;4.57;2.10;;;21.10;55.50;;;;;;5058218;28;20458;-58
2023/08/09 12:09:36;;;;;;;4.07;2.00;;;21.10;55.50;;;;;;5059822;28;20460;-58
2023/08/09 12:12:07;;;;;;;6.37;2.30;;;21.10;56.10;;;;;;5060776;28;20432;-58
2023/08/09 12:14:35;;;;;;;3.30;2.20;;;21.10;56.00;;;;;;5061748;28;20468;-60
2023/08/09 12:17:01;;;;;;;2.60;2.40;;;21.10;56.20;;;;;;5058788;28;20429;-58
2023/08/09 12:19:27;;;;;;;5.37;2.40;;;21.10;55.90;;;;;;5065102;28;20533;-58
2023/08/09 12:21:54;;;;;;;5.63;2.57;;;21.00;55.70;;;;;;5061904;28;20440;-58
2023/08/09 12:24:19;;;;;;;2.80;2.30;;;20.90;55.30;;;;;;5061730;28;20488;-58
2023/08/09 12:26:45;;;;;;;2.63;2.00;;;20.80;55.20;;;;;;5061792;28;20487;-58
2023/08/09 12:29:11;;;;;;;4.57;2.87;;;20.80;55.90;;;;;;5058646;28;20313;-58
2023/08/09 12:31:37;;;;;;;2.13;1.93;;;20.70;55.70;;;;;;5058018;28;20182;-58
2023/08/09 12:34:03;;;;;;;2.80;2.27;;;20.60;56.00;;;;;;5057667;28;20964;-58
2023/08/09 12:36:30;;;;;;;2.13;1.93;;;20.50;56.50;;;;;;5059573;28;20486;-58
2023/08/09 12:38:57;;;;;;;3.30;1.90;;;20.60;55.90;;;;;;5056919;28;20972;-58
2023/08/09 12:41:24;;;;;;;3.63;2.00;;;20.70;57.20;;;;;;5057321;28;20439;-60
2023/08/09 12:43:49;;;;;;;2.10;1.90;;;20.80;57.00;;;;;;5055034;28;20540;-59
2023/08/09 12:46:15;;;;;;;2.13;1.93;;;20.90;56.90;;;;;;5059197;28;20516;-58